Thompson Airport
CYTH : rendu visible

Aérodrome :











RETROUVEZ-NOUS SUR...

 
LOGIN :

S'inscrire | Disclaimer

   EN    FR    IT 

 









Légende :    VFR   VFR Marginal   IFR   IFR Intensif   IFR Très Intensif
Visi : 
Plafond : 
>= 8 km
>= 3000ft
5 à 8 km
1000 à 3000 ft
1500m à 5 km
500 à 1000 ft
800 à 1500m
200 à 500 ft
< 800m
< 200 ft
Symboles :   Orages  Brouillard  Fortes neiges  Fortes précipitations  Vent > 20 kt






- Altitude de l'aérodrome : 729 ft
- Code IATA : YTH


CYTH - Thompson

DERNIER METAR :
  • 272052Z 18003KT 150V210 5SM -SN BKN007 OVC010 M12/M14 A3008 RMK SC6SC2 SLP214

METARs EXPIRÉS :
  • 272000Z VRB02KT 4SM R06/5500VP6000FT/U BR BKN007 OVC010 M13/M15 A3008 RMK SC6SC2 SLP215
  • 271900Z 00000KT 4SM BR OVC005 M14/M16 A3009 RMK ST8 CIG VRB 004-006 SLP218

TAF TAF CYTH
Valide du 27 à 19h jusqu'au 28 à 07h UTC


271838Z 2719/2807 VRB03KT 2SM BR OVC004
TEMPO 2719/2807 6SM BR OVC008 RMK NXT FCST BY 280100Z



MET'MAP, la Météo Aéronautique d'un coup d'oeil ! - Copyright ORBIFLY Décembre 2007 - Disclaimer

ORBIFLY MET'MAP TEAM :

Programmation & Développement : Alexandra Zaïnal
Sur une idée originale de : Baudouin d'Aumeries
Assistance à la programmation : Marc-Olivier Méhu
Soutien technique & logistique : Manuel Goepfert

Contact : metmap@orbifly.com




SOURCES & CREDITS :

   NOAA       Earth
Advisory